sensor_id;sensor_type;location;lat;lon;timestamp;temperature;humidity
69281;SHT31;56392;51.082;17.080;2023-03-15T00:00:22;4.64;76.90
69281;SHT31;56392;51.082;17.080;2023-03-15T00:05:53;4.66;76.46
69281;SHT31;56392;51.082;17.080;2023-03-15T00:11:17;4.65;76.51
69281;SHT31;56392;51.082;17.080;2023-03-15T00:16:42;4.69;76.48
69281;SHT31;56392;51.082;17.080;2023-03-15T00:22:05;4.54;76.47
69281;SHT31;56392;51.082;17.080;2023-03-15T00:27:28;4.62;76.29
69281;SHT31;56392;51.082;17.080;2023-03-15T00:32:53;4.61;76.57
69281;SHT31;56392;51.082;17.080;2023-03-15T00:38:16;4.57;76.15
69281;SHT31;56392;51.082;17.080;2023-03-15T00:43:40;4.64;76.22
69281;SHT31;56392;51.082;17.080;2023-03-15T00:49:04;4.59;76.56
69281;SHT31;56392;51.082;17.080;2023-03-15T00:54:27;4.61;76.24
69281;SHT31;56392;51.082;17.080;2023-03-15T00:59:54;4.58;75.85
69281;SHT31;56392;51.082;17.080;2023-03-15T01:05:19;4.48;75.66
69281;SHT31;56392;51.082;17.080;2023-03-15T01:10:42;4.57;75.19
69281;SHT31;56392;51.082;17.080;2023-03-15T01:16:07;4.54;75.50
69281;SHT31;56392;51.082;17.080;2023-03-15T01:21:32;4.52;75.24
69281;SHT31;56392;51.082;17.080;2023-03-15T01:26:55;4.47;75.29
69281;SHT31;56392;51.082;17.080;2023-03-15T01:32:19;4.55;75.02
69281;SHT31;56392;51.082;17.080;2023-03-15T01:37:43;4.44;74.24
69281;SHT31;56392;51.082;17.080;2023-03-15T01:43:24;4.48;74.14
69281;SHT31;56392;51.082;17.080;2023-03-15T01:48:52;4.51;74.11
69281;SHT31;56392;51.082;17.080;2023-03-15T01:54:21;4.35;73.13
69281;SHT31;56392;51.082;17.080;2023-03-15T01:59:50;4.41;73.38
69281;SHT31;56392;51.082;17.080;2023-03-15T02:05:17;4.38;72.95
69281;SHT31;56392;51.082;17.080;2023-03-15T02:10:45;4.44;72.48
69281;SHT31;56392;51.082;17.080;2023-03-15T02:16:10;4.37;72.48
69281;SHT31;56392;51.082;17.080;2023-03-15T02:21:40;4.31;72.49
69281;SHT31;56392;51.082;17.080;2023-03-15T02:27:06;4.35;72.25
69281;SHT31;56392;51.082;17.080;2023-03-15T02:32:31;4.40;72.77
69281;SHT31;56392;51.082;17.080;2023-03-15T02:37:54;4.31;72.77
69281;SHT31;56392;51.082;17.080;2023-03-15T02:43:20;4.28;72.81
69281;SHT31;56392;51.082;17.080;2023-03-15T02:48:47;4.14;73.07
69281;SHT31;56392;51.082;17.080;2023-03-15T02:54:12;4.21;73.13
69281;SHT31;56392;51.082;17.080;2023-03-15T02:59:35;4.13;73.24
69281;SHT31;56392;51.082;17.080;2023-03-15T03:04:59;4.16;73.07
69281;SHT31;56392;51.082;17.080;2023-03-15T03:10:23;4.14;72.85
69281;SHT31;56392;51.082;17.080;2023-03-15T03:15:48;4.11;73.01
69281;SHT31;56392;51.082;17.080;2023-03-15T03:21:20;4.03;73.16
69281;SHT31;56392;51.082;17.080;2023-03-15T03:26:43;4.11;72.65
69281;SHT31;56392;51.082;17.080;2023-03-15T03:32:08;4.07;72.57
69281;SHT31;56392;51.082;17.080;2023-03-15T03:37:33;4.10;71.97
69281;SHT31;56392;51.082;17.080;2023-03-15T03:42:56;4.16;72.08
69281;SHT31;56392;51.082;17.080;2023-03-15T03:48:20;4.06;72.11
69281;SHT31;56392;51.082;17.080;2023-03-15T03:53:45;4.08;72.18
69281;SHT31;56392;51.082;17.080;2023-03-15T03:59:08;3.91;72.19
69281;SHT31;56392;51.082;17.080;2023-03-15T04:04:32;3.97;72.15
69281;SHT31;56392;51.082;17.080;2023-03-15T04:09:57;3.89;72.41
69281;SHT31;56392;51.082;17.080;2023-03-15T04:15:21;3.83;71.94
69281;SHT31;56392;51.082;17.080;2023-03-15T04:20:46;3.87;72.00
69281;SHT31;56392;51.082;17.080;2023-03-15T04:26:10;3.93;71.84
69281;SHT31;56392;51.082;17.080;2023-03-15T04:31:35;3.94;71.83
69281;SHT31;56392;51.082;17.080;2023-03-15T04:36:59;3.93;71.82
69281;SHT31;56392;51.082;17.080;2023-03-15T04:42:24;3.89;71.73
69281;SHT31;56392;51.082;17.080;2023-03-15T04:47:48;3.89;71.76
69281;SHT31;56392;51.082;17.080;2023-03-15T04:53:11;3.86;72.01
69281;SHT31;56392;51.082;17.080;2023-03-15T04:58:35;3.77;71.97
69281;SHT31;56392;51.082;17.080;2023-03-15T05:03:59;3.75;71.99
69281;SHT31;56392;51.082;17.080;2023-03-15T05:09:22;3.58;71.96
69281;SHT31;56392;51.082;17.080;2023-03-15T05:14:46;3.63;72.21
69281;SHT31;56392;51.082;17.080;2023-03-15T05:20:11;3.77;72.21
69281;SHT31;56392;51.082;17.080;2023-03-15T05:25:34;3.77;72.29
69281;SHT31;56392;51.082;17.080;2023-03-15T05:30:59;3.72;72.36
69281;SHT31;56392;51.082;17.080;2023-03-15T05:36:23;3.79;72.14
69281;SHT31;56392;51.082;17.080;2023-03-15T05:41:46;3.75;72.35
69281;SHT31;56392;51.082;17.080;2023-03-15T05:47:10;3.77;72.11
69281;SHT31;56392;51.082;17.080;2023-03-15T05:52:34;3.79;72.03
69281;SHT31;56392;51.082;17.080;2023-03-15T05:57:58;3.75;72.10
69281;SHT31;56392;51.082;17.080;2023-03-15T06:03:23;3.83;71.88
69281;SHT31;56392;51.082;17.080;2023-03-15T06:08:46;3.89;71.58
69281;SHT31;56392;51.082;17.080;2023-03-15T06:14:09;3.91;71.96
69281;SHT31;56392;51.082;17.080;2023-03-15T06:19:34;3.97;71.51
69281;SHT31;56392;51.082;17.080;2023-03-15T06:24:57;3.91;71.00
69281;SHT31;56392;51.082;17.080;2023-03-15T06:30:20;3.94;71.12
69281;SHT31;56392;51.082;17.080;2023-03-15T06:35:45;3.91;70.78
69281;SHT31;56392;51.082;17.080;2023-03-15T06:41:09;3.98;70.51
69281;SHT31;56392;51.082;17.080;2023-03-15T06:46:33;4.22;70.48
69281;SHT31;56392;51.082;17.080;2023-03-15T06:51:57;4.30;69.93
69281;SHT31;56392;51.082;17.080;2023-03-15T06:57:21;4.41;69.32
69281;SHT31;56392;51.082;17.080;2023-03-15T07:02:44;4.52;69.56
69281;SHT31;56392;51.082;17.080;2023-03-15T07:08:08;4.55;68.51
69281;SHT31;56392;51.082;17.080;2023-03-15T07:13:31;4.75;68.87
69281;SHT31;56392;51.082;17.080;2023-03-15T07:18:54;4.89;68.68
69281;SHT31;56392;51.082;17.080;2023-03-15T07:24:21;5.09;67.35
69281;SHT31;56392;51.082;17.080;2023-03-15T07:29:44;5.09;67.02
69281;SHT31;56392;51.082;17.080;2023-03-15T07:35:09;5.37;67.01
69281;SHT31;56392;51.082;17.080;2023-03-15T07:40:33;5.51;65.31
69281;SHT31;56392;51.082;17.080;2023-03-15T07:45:56;5.61;66.04
69281;SHT31;56392;51.082;17.080;2023-03-15T07:51:19;5.67;64.90
69281;SHT31;56392;51.082;17.080;2023-03-15T07:56:44;5.64;65.26
69281;SHT31;56392;51.082;17.080;2023-03-15T08:02:08;5.85;64.51
69281;SHT31;56392;51.082;17.080;2023-03-15T08:07:32;5.97;64.19
69281;SHT31;56392;51.082;17.080;2023-03-15T08:12:58;5.97;63.47
69281;SHT31;56392;51.082;17.080;2023-03-15T08:18:21;5.97;62.91
69281;SHT31;56392;51.082;17.080;2023-03-15T08:23:44;5.91;62.45
69281;SHT31;56392;51.082;17.080;2023-03-15T08:29:09;5.95;62.46
69281;SHT31;56392;51.082;17.080;2023-03-15T08:34:32;5.92;61.62
69281;SHT31;56392;51.082;17.080;2023-03-15T08:39:56;5.84;61.20
69281;SHT31;56392;51.082;17.080;2023-03-15T08:45:24;5.87;60.71
69281;SHT31;56392;51.082;17.080;2023-03-15T08:50:47;6.01;61.83
69281;SHT31;56392;51.082;17.080;2023-03-15T08:56:10;6.12;62.53
69281;SHT31;56392;51.082;17.080;2023-03-15T09:01:35;6.30;61.61
69281;SHT31;56392;51.082;17.080;2023-03-15T09:07:00;6.42;62.23
69281;SHT31;56392;51.082;17.080;2023-03-15T09:12:23;6.34;60.91
69281;SHT31;56392;51.082;17.080;2023-03-15T09:17:49;6.37;61.15
69281;SHT31;56392;51.082;17.080;2023-03-15T09:23:12;6.54;61.08
69281;SHT31;56392;51.082;17.080;2023-03-15T09:28:35;6.71;60.33
69281;SHT31;56392;51.082;17.080;2023-03-15T09:34:00;6.76;60.36
69281;SHT31;56392;51.082;17.080;2023-03-15T09:39:23;6.79;59.61
69281;SHT31;56392;51.082;17.080;2023-03-15T09:44:49;6.69;59.54
69281;SHT31;56392;51.082;17.080;2023-03-15T09:50:20;6.90;59.64
69281;SHT31;56392;51.082;17.080;2023-03-15T09:55:45;7.08;58.51
69281;SHT31;56392;51.082;17.080;2023-03-15T10:01:12;7.07;56.49
69281;SHT31;56392;51.082;17.080;2023-03-15T10:06:40;7.15;57.75
69281;SHT31;56392;51.082;17.080;2023-03-15T10:12:09;7.12;55.42
69281;SHT31;56392;51.082;17.080;2023-03-15T10:17:40;7.28;57.85
69281;SHT31;56392;51.082;17.080;2023-03-15T10:23:10;7.35;56.37
69281;SHT31;56392;51.082;17.080;2023-03-15T10:28:36;7.31;56.24
69281;SHT31;56392;51.082;17.080;2023-03-15T10:34:00;7.43;57.69
69281;SHT31;56392;51.082;17.080;2023-03-15T10:39:25;7.58;57.51
69281;SHT31;56392;51.082;17.080;2023-03-15T10:44:48;7.62;55.57
69281;SHT31;56392;51.082;17.080;2023-03-15T10:50:17;7.61;56.05
69281;SHT31;56392;51.082;17.080;2023-03-15T10:55:43;7.58;56.41
69281;SHT31;56392;51.082;17.080;2023-03-15T11:01:12;7.56;54.74
69281;SHT31;56392;51.082;17.080;2023-03-15T11:06:40;7.55;53.66
69281;SHT31;56392;51.082;17.080;2023-03-15T11:12:07;7.58;53.15
69281;SHT31;56392;51.082;17.080;2023-03-15T11:17:33;7.53;52.63
69281;SHT31;56392;51.082;17.080;2023-03-15T11:22:56;7.48;50.90
69281;SHT31;56392;51.082;17.080;2023-03-15T11:28:23;7.61;52.36
69281;SHT31;56392;51.082;17.080;2023-03-15T11:33:53;7.80;53.91
69281;SHT31;56392;51.082;17.080;2023-03-15T11:39:25;7.89;50.12
69281;SHT31;56392;51.082;17.080;2023-03-15T11:44:54;7.98;49.98
69281;SHT31;56392;51.082;17.080;2023-03-15T11:50:19;7.97;49.91
69281;SHT31;56392;51.082;17.080;2023-03-15T11:55:47;8.00;51.20
69281;SHT31;56392;51.082;17.080;2023-03-15T12:01:23;7.87;50.72
69281;SHT31;56392;51.082;17.080;2023-03-15T12:06:47;7.95;52.65
69281;SHT31;56392;51.082;17.080;2023-03-15T12:12:41;7.83;51.15
69281;SHT31;56392;51.082;17.080;2023-03-15T12:18:13;7.83;51.54
69281;SHT31;56392;51.082;17.080;2023-03-15T12:23:41;7.82;50.44
69281;SHT31;56392;51.082;17.080;2023-03-15T12:34:47;7.91;50.52
69281;SHT31;56392;51.082;17.080;2023-03-15T12:40:48;7.84;49.16
69281;SHT31;56392;51.082;17.080;2023-03-15T12:52:41;7.95;49.44
69281;SHT31;56392;51.082;17.080;2023-03-15T12:58:09;7.91;49.98
69281;SHT31;56392;51.082;17.080;2023-03-15T13:03:34;7.76;50.16
69281;SHT31;56392;51.082;17.080;2023-03-15T13:09:02;7.67;49.04
69281;SHT31;56392;51.082;17.080;2023-03-15T13:14:38;7.59;48.46
69281;SHT31;56392;51.082;17.080;2023-03-15T13:20:15;7.65;49.49
69281;SHT31;56392;51.082;17.080;2023-03-15T13:25:49;7.59;48.51
69281;SHT31;56392;51.082;17.080;2023-03-15T13:31:19;7.63;48.04
69281;SHT31;56392;51.082;17.080;2023-03-15T13:36:45;7.58;50.77
69281;SHT31;56392;51.082;17.080;2023-03-15T13:42:18;7.62;50.56
69281;SHT31;56392;51.082;17.080;2023-03-15T13:47:43;7.59;51.19
69281;SHT31;56392;51.082;17.080;2023-03-15T13:53:06;7.62;50.37
69281;SHT31;56392;51.082;17.080;2023-03-15T13:58:31;7.67;51.28
69281;SHT31;56392;51.082;17.080;2023-03-15T14:03:57;7.67;52.16
69281;SHT31;56392;51.082;17.080;2023-03-15T14:09:25;7.58;51.57
69281;SHT31;56392;51.082;17.080;2023-03-15T14:14:52;7.62;52.72
69281;SHT31;56392;51.082;17.080;2023-03-15T14:20:16;7.65;53.11
69281;SHT31;56392;51.082;17.080;2023-03-15T14:25:39;7.51;53.28
69281;SHT31;56392;51.082;17.080;2023-03-15T14:31:04;7.49;53.71
69281;SHT31;56392;51.082;17.080;2023-03-15T14:36:30;7.43;53.30
69281;SHT31;56392;51.082;17.080;2023-03-15T14:41:56;7.52;53.63
69281;SHT31;56392;51.082;17.080;2023-03-15T14:47:20;7.59;54.04
69281;SHT31;56392;51.082;17.080;2023-03-15T14:52:44;7.58;54.59
69281;SHT31;56392;51.082;17.080;2023-03-15T14:58:11;7.56;55.03
69281;SHT31;56392;51.082;17.080;2023-03-15T15:03:37;7.49;56.29
69281;SHT31;56392;51.082;17.080;2023-03-15T15:09:03;7.39;58.77
69281;SHT31;56392;51.082;17.080;2023-03-15T15:14:27;7.18;60.86
69281;SHT31;56392;51.082;17.080;2023-03-15T15:19:51;7.05;61.88
69281;SHT31;56392;51.082;17.080;2023-03-15T15:25:16;7.02;63.92
69281;SHT31;56392;51.082;17.080;2023-03-15T15:30:39;6.95;65.06
69281;SHT31;56392;51.082;17.080;2023-03-15T15:36:09;6.90;64.73
69281;SHT31;56392;51.082;17.080;2023-03-15T15:41:33;6.87;65.77
69281;SHT31;56392;51.082;17.080;2023-03-15T15:46:56;6.83;66.32
69281;SHT31;56392;51.082;17.080;2023-03-15T15:52:22;6.84;65.58
69281;SHT31;56392;51.082;17.080;2023-03-15T15:57:49;6.76;65.66
69281;SHT31;56392;51.082;17.080;2023-03-15T16:03:13;6.58;67.40
69281;SHT31;56392;51.082;17.080;2023-03-15T16:08:38;6.51;66.89
69281;SHT31;56392;51.082;17.080;2023-03-15T16:14:02;6.37;65.31
69281;SHT31;56392;51.082;17.080;2023-03-15T16:19:25;6.42;64.30
69281;SHT31;56392;51.082;17.080;2023-03-15T16:24:52;6.43;63.72
69281;SHT31;56392;51.082;17.080;2023-03-15T16:30:19;6.39;64.35
69281;SHT31;56392;51.082;17.080;2023-03-15T16:35:43;6.33;63.02
69281;SHT31;56392;51.082;17.080;2023-03-15T16:41:10;6.29;62.23
69281;SHT31;56392;51.082;17.080;2023-03-15T16:46:34;6.33;62.54
69281;SHT31;56392;51.082;17.080;2023-03-15T16:51:57;6.22;62.82
69281;SHT31;56392;51.082;17.080;2023-03-15T16:57:25;6.05;64.58
69281;SHT31;56392;51.082;17.080;2023-03-15T17:02:50;5.97;64.68
69281;SHT31;56392;51.082;17.080;2023-03-15T17:08:18;5.89;65.75
69281;SHT31;56392;51.082;17.080;2023-03-15T17:13:44;5.84;66.36
69281;SHT31;56392;51.082;17.080;2023-03-15T17:19:10;5.84;66.57
69281;SHT31;56392;51.082;17.080;2023-03-15T17:24:33;5.68;67.09
69281;SHT31;56392;51.082;17.080;2023-03-15T17:29:58;5.68;67.18
69281;SHT31;56392;51.082;17.080;2023-03-15T17:35:24;5.57;67.39
69281;SHT31;56392;51.082;17.080;2023-03-15T17:40:49;5.55;67.28
69281;SHT31;56392;51.082;17.080;2023-03-15T17:46:14;5.52;66.79
69281;SHT31;56392;51.082;17.080;2023-03-15T17:51:43;5.43;67.00
69281;SHT31;56392;51.082;17.080;2023-03-15T17:57:09;5.34;67.26
69281;SHT31;56392;51.082;17.080;2023-03-15T18:02:33;5.22;67.76
69281;SHT31;56392;51.082;17.080;2023-03-15T18:07:56;5.07;68.50
69281;SHT31;56392;51.082;17.080;2023-03-15T18:13:23;5.13;68.42
69281;SHT31;56392;51.082;17.080;2023-03-15T18:18:48;5.01;69.45
69281;SHT31;56392;51.082;17.080;2023-03-15T18:24:11;5.07;69.18
69281;SHT31;56392;51.082;17.080;2023-03-15T18:29:35;5.07;69.08
69281;SHT31;56392;51.082;17.080;2023-03-15T18:35:00;4.96;69.63
69281;SHT31;56392;51.082;17.080;2023-03-15T18:40:27;4.83;69.99
69281;SHT31;56392;51.082;17.080;2023-03-15T18:45:51;4.79;70.01
69281;SHT31;56392;51.082;17.080;2023-03-15T18:51:16;4.76;69.88
69281;SHT31;56392;51.082;17.080;2023-03-15T18:56:39;4.72;69.94
69281;SHT31;56392;51.082;17.080;2023-03-15T19:02:03;4.64;70.14
69281;SHT31;56392;51.082;17.080;2023-03-15T19:07:28;4.62;70.15
69281;SHT31;56392;51.082;17.080;2023-03-15T19:12:51;4.52;70.55
69281;SHT31;56392;51.082;17.080;2023-03-15T19:18:14;4.49;70.89
69281;SHT31;56392;51.082;17.080;2023-03-15T19:23:39;4.35;70.98
69281;SHT31;56392;51.082;17.080;2023-03-15T19:29:02;4.20;71.54
69281;SHT31;56392;51.082;17.080;2023-03-15T19:34:26;4.07;72.10
69281;SHT31;56392;51.082;17.080;2023-03-15T19:39:51;4.10;71.89
69281;SHT31;56392;51.082;17.080;2023-03-15T19:45:17;4.17;71.31
69281;SHT31;56392;51.082;17.080;2023-03-15T19:50:40;4.14;71.16
69281;SHT31;56392;51.082;17.080;2023-03-15T19:56:06;4.18;70.73
69281;SHT31;56392;51.082;17.080;2023-03-15T20:01:30;4.18;70.66
69281;SHT31;56392;51.082;17.080;2023-03-15T20:06:53;4.14;71.22
69281;SHT31;56392;51.082;17.080;2023-03-15T20:12:18;4.08;71.41
69281;SHT31;56392;51.082;17.080;2023-03-15T20:17:41;3.98;71.33
69281;SHT31;56392;51.082;17.080;2023-03-15T20:23:05;3.93;71.21
69281;SHT31;56392;51.082;17.080;2023-03-15T20:28:30;3.93;71.39
69281;SHT31;56392;51.082;17.080;2023-03-15T20:33:53;3.94;70.89
69281;SHT31;56392;51.082;17.080;2023-03-15T20:39:17;3.94;71.06
69281;SHT31;56392;51.082;17.080;2023-03-15T20:44:44;3.91;70.84
69281;SHT31;56392;51.082;17.080;2023-03-15T20:50:10;3.86;70.64
69281;SHT31;56392;51.082;17.080;2023-03-15T20:55:33;3.87;70.34
69281;SHT31;56392;51.082;17.080;2023-03-15T21:01:06;3.85;70.89
69281;SHT31;56392;51.082;17.080;2023-03-15T21:06:29;3.76;70.76
69281;SHT31;56392;51.082;17.080;2023-03-15T21:11:52;3.75;71.19
69281;SHT31;56392;51.082;17.080;2023-03-15T21:17:19;3.59;71.87
69281;SHT31;56392;51.082;17.080;2023-03-15T21:22:42;3.45;72.46
69281;SHT31;56392;51.082;17.080;2023-03-15T21:28:05;3.35;73.24
69281;SHT31;56392;51.082;17.080;2023-03-15T21:33:31;3.29;73.21
69281;SHT31;56392;51.082;17.080;2023-03-15T21:38:54;3.34;73.26
69281;SHT31;56392;51.082;17.080;2023-03-15T21:44:17;3.26;73.12
69281;SHT31;56392;51.082;17.080;2023-03-15T21:49:41;3.19;72.88
69281;SHT31;56392;51.082;17.080;2023-03-15T21:55:06;3.11;73.17
69281;SHT31;56392;51.082;17.080;2023-03-15T22:00:30;3.11;72.89
69281;SHT31;56392;51.082;17.080;2023-03-15T22:05:54;3.16;72.66
69281;SHT31;56392;51.082;17.080;2023-03-15T22:11:17;3.15;72.73
69281;SHT31;56392;51.082;17.080;2023-03-15T22:16:43;3.04;73.20
69281;SHT31;56392;51.082;17.080;2023-03-15T22:22:07;3.07;72.91
69281;SHT31;56392;51.082;17.080;2023-03-15T22:27:31;3.07;72.76
69281;SHT31;56392;51.082;17.080;2023-03-15T22:32:54;3.07;72.54
69281;SHT31;56392;51.082;17.080;2023-03-15T22:38:18;3.00;72.76
69281;SHT31;56392;51.082;17.080;2023-03-15T22:43:41;3.07;72.53
69281;SHT31;56392;51.082;17.080;2023-03-15T22:49:07;2.97;72.78
69281;SHT31;56392;51.082;17.080;2023-03-15T22:54:31;2.94;72.74
69281;SHT31;56392;51.082;17.080;2023-03-15T22:59:54;2.81;73.19
69281;SHT31;56392;51.082;17.080;2023-03-15T23:05:19;2.76;73.64
69281;SHT31;56392;51.082;17.080;2023-03-15T23:10:44;2.81;73.44
69281;SHT31;56392;51.082;17.080;2023-03-15T23:16:07;2.72;73.91
69281;SHT31;56392;51.082;17.080;2023-03-15T23:21:31;2.68;73.54
69281;SHT31;56392;51.082;17.080;2023-03-15T23:26:55;2.64;73.67
69281;SHT31;56392;51.082;17.080;2023-03-15T23:32:18;2.50;74.25
69281;SHT31;56392;51.082;17.080;2023-03-15T23:37:42;2.42;74.17
69281;SHT31;56392;51.082;17.080;2023-03-15T23:43:06;2.39;73.97
69281;SHT31;56392;51.082;17.080;2023-03-15T23:48:30;2.29;74.05
69281;SHT31;56392;51.082;17.080;2023-03-15T23:53:55;2.19;74.28
69281;SHT31;56392;51.082;17.080;2023-03-15T23:59:19;2.18;74.43
